createdAt,value
2022-12-24T00:01:00.850Z,1.20
2022-12-24T00:03:28.385Z,1.48
2022-12-24T00:05:55.232Z,1.30
2022-12-24T00:08:22.091Z,1.60
2022-12-24T00:10:53.016Z,1.50
2022-12-24T00:13:20.476Z,1.38
2022-12-24T00:15:47.806Z,1.63
2022-12-24T00:18:15.199Z,1.40
2022-12-24T00:20:42.268Z,1.25
2022-12-24T00:23:09.047Z,1.67
2022-12-24T00:25:35.846Z,1.55
2022-12-24T00:28:02.704Z,1.20
2022-12-24T00:30:29.689Z,1.63
2022-12-24T00:32:56.608Z,1.60
2022-12-24T00:35:23.787Z,1.95
2022-12-24T00:37:50.818Z,1.60
2022-12-24T00:40:18.402Z,1.45
2022-12-24T00:42:45.183Z,1.00
2022-12-24T00:45:13.070Z,1.55
2022-12-24T00:47:39.856Z,1.50
2022-12-24T00:50:07.350Z,1.20
2022-12-24T00:52:34.673Z,1.52
2022-12-24T00:55:01.562Z,1.17
2022-12-24T00:57:28.419Z,1.48
2022-12-24T00:59:55.181Z,1.45
2022-12-24T01:02:22.514Z,1.40
2022-12-24T01:05:08.000Z,1.27
2022-12-24T01:07:34.944Z,1.38
2022-12-24T01:10:01.734Z,1.60
2022-12-24T01:12:28.573Z,1.25
2022-12-24T01:14:55.515Z,1.63
2022-12-24T01:17:22.571Z,1.60
2022-12-24T01:19:49.397Z,1.15
2022-12-24T01:22:16.322Z,1.42
2022-12-24T01:24:43.591Z,1.27
2022-12-24T01:27:10.955Z,1.60
2022-12-24T01:29:37.741Z,1.40
2022-12-24T01:32:05.322Z,1.30
2022-12-24T01:34:32.278Z,1.30
2022-12-24T01:36:59.349Z,1.10
2022-12-24T01:39:26.206Z,1.40
2022-12-24T01:42:11.780Z,1.20
2022-12-24T01:44:47.983Z,1.08
2022-12-24T01:47:25.841Z,1.17
2022-12-24T01:49:56.966Z,1.30
2022-12-24T01:52:29.591Z,1.33
2022-12-24T01:55:06.371Z,1.08
2022-12-24T01:57:48.786Z,1.70
2022-12-24T02:00:16.633Z,1.90
2022-12-24T02:02:47.268Z,1.50
2022-12-24T02:05:30.738Z,1.70
2022-12-24T02:07:59.542Z,2.03
2022-12-24T02:10:26.504Z,1.65
2022-12-24T02:12:53.604Z,1.58
2022-12-24T02:15:21.794Z,1.40
2022-12-24T02:17:57.944Z,1.73
2022-12-24T02:20:43.679Z,1.58
2022-12-24T02:23:14.377Z,1.58
2022-12-24T02:25:47.018Z,1.77
2022-12-24T02:28:36.608Z,1.58
2022-12-24T02:31:18.663Z,1.73
2022-12-24T02:33:54.952Z,1.33
2022-12-24T02:36:48.581Z,2.05
2022-12-24T02:39:25.348Z,1.65
2022-12-24T02:42:07.999Z,1.60
2022-12-24T02:44:44.648Z,1.40
2022-12-24T02:47:13.150Z,1.60
2022-12-24T02:49:45.309Z,1.58
2022-12-24T02:52:34.432Z,1.60
2022-12-24T02:55:30.335Z,1.55
2022-12-24T02:58:25.287Z,1.48
2022-12-24T03:01:17.415Z,1.50
2022-12-24T03:04:03.380Z,1.80
2022-12-24T03:06:58.595Z,1.63
2022-12-24T03:09:36.768Z,1.50
2022-12-24T03:12:18.224Z,1.58
2022-12-24T03:14:46.839Z,2.05
2022-12-24T03:17:14.287Z,1.40
2022-12-24T03:19:41.195Z,1.80
2022-12-24T03:22:10.787Z,1.48
2022-12-24T03:24:38.307Z,2.03
2022-12-24T03:27:06.860Z,1.40
2022-12-24T03:29:33.926Z,1.90
2022-12-24T03:32:03.039Z,1.27
2022-12-24T03:34:30.585Z,1.98
2022-12-24T03:36:57.546Z,1.70
2022-12-24T03:39:24.385Z,1.35
2022-12-24T03:41:51.636Z,1.80
2022-12-24T03:44:18.423Z,1.50
2022-12-24T03:46:45.147Z,1.25
2022-12-24T03:49:12.073Z,1.50
2022-12-24T03:51:38.834Z,1.35
2022-12-24T03:54:05.752Z,1.27
2022-12-24T03:56:32.676Z,2.15
2022-12-24T03:58:59.473Z,1.70
2022-12-24T04:01:26.327Z,1.23
2022-12-24T04:03:53.171Z,1.50
2022-12-24T04:06:19.994Z,1.60
2022-12-24T04:08:46.802Z,1.55
2022-12-24T04:11:15.490Z,1.30
2022-12-24T04:13:42.470Z,1.45
2022-12-24T04:16:12.348Z,1.83
2022-12-24T04:18:39.847Z,1.90
2022-12-24T04:21:07.605Z,1.48
2022-12-24T04:23:35.853Z,2.05
2022-12-24T04:26:04.148Z,1.52
2022-12-24T04:28:31.662Z,2.00
2022-12-24T04:31:03.590Z,1.95
2022-12-24T04:33:30.713Z,2.22
2022-12-24T04:35:58.709Z,2.25
2022-12-24T04:38:25.732Z,1.83
2022-12-24T04:41:00.422Z,1.60
2022-12-24T04:43:28.939Z,2.53
2022-12-24T04:45:56.321Z,1.90
2022-12-24T04:48:23.361Z,1.98
2022-12-24T04:50:50.123Z,1.95
2022-12-24T04:53:17.031Z,1.85
2022-12-24T04:55:47.301Z,1.85
2022-12-24T04:58:14.201Z,2.10
2022-12-24T05:00:41.692Z,1.98
2022-12-24T05:03:08.571Z,1.52
2022-12-24T05:05:35.455Z,1.60
2022-12-24T05:08:02.407Z,2.05
2022-12-24T05:10:29.347Z,2.05
2022-12-24T05:12:56.517Z,1.58
2022-12-24T05:15:23.946Z,2.53
2022-12-24T05:17:51.105Z,1.60
2022-12-24T05:20:18.063Z,1.65
2022-12-24T05:23:03.827Z,2.20
2022-12-24T05:25:55.457Z,1.88
2022-12-24T05:28:22.400Z,1.38
2022-12-24T05:30:49.213Z,2.28
2022-12-24T05:33:16.036Z,3.25
2022-12-24T05:35:42.808Z,3.95
2022-12-24T05:38:09.689Z,5.80
2022-12-24T05:40:36.540Z,4.22
2022-12-24T05:43:03.279Z,4.07
2022-12-24T05:45:30.117Z,2.42
2022-12-24T05:47:56.864Z,1.83
2022-12-24T05:50:23.584Z,1.67
2022-12-24T05:53:04.575Z,2.45
2022-12-24T05:55:31.415Z,2.33
2022-12-24T05:57:58.339Z,2.65
2022-12-24T06:00:25.155Z,2.00
2022-12-24T06:02:52.071Z,2.72
2022-12-24T06:05:18.859Z,2.15
2022-12-24T06:07:45.622Z,2.33
2022-12-24T06:10:12.817Z,2.08
2022-12-24T06:12:39.572Z,2.28
2022-12-24T06:15:07.085Z,1.95
2022-12-24T06:17:33.923Z,1.92
2022-12-24T06:20:00.787Z,2.42
2022-12-24T06:22:27.790Z,2.42
2022-12-24T06:24:54.513Z,2.63
2022-12-24T06:27:21.466Z,1.77
2022-12-24T06:29:48.198Z,2.53
2022-12-24T06:32:14.947Z,2.17
2022-12-24T06:34:41.829Z,1.70
2022-12-24T06:37:08.875Z,2.28
2022-12-24T06:39:35.632Z,1.98
2022-12-24T06:42:02.358Z,2.00
2022-12-24T06:44:29.091Z,1.73
2022-12-24T06:46:55.893Z,2.03
2022-12-24T06:49:22.717Z,1.95
2022-12-24T06:51:49.476Z,1.90
2022-12-24T06:54:16.317Z,1.70
2022-12-24T06:56:43.032Z,2.17
2022-12-24T06:59:09.795Z,1.52
2022-12-24T07:01:36.965Z,2.58
2022-12-24T07:04:04.017Z,2.50
2022-12-24T07:06:31.377Z,2.33
2022-12-24T07:08:58.221Z,2.50
2022-12-24T07:11:25.599Z,2.30
2022-12-24T07:13:52.442Z,3.13
2022-12-24T07:16:19.410Z,3.20
2022-12-24T07:18:46.248Z,1.80
2022-12-24T07:21:13.049Z,2.22
2022-12-24T07:23:40.935Z,2.30
2022-12-24T07:26:08.424Z,2.35
2022-12-24T07:28:35.194Z,2.00
2022-12-24T07:31:02.031Z,1.92
2022-12-24T07:33:29.039Z,2.10
2022-12-24T07:36:04.822Z,2.92
2022-12-24T07:38:32.501Z,2.65
2022-12-24T07:40:59.720Z,2.47
2022-12-24T07:43:27.619Z,2.30
2022-12-24T07:45:58.172Z,2.58
2022-12-24T07:48:26.988Z,2.25
2022-12-24T07:50:54.197Z,2.10
2022-12-24T07:53:21.084Z,2.35
2022-12-24T07:55:47.850Z,2.33
2022-12-24T07:58:14.646Z,3.15
2022-12-24T08:00:41.510Z,3.13
2022-12-24T08:03:10.640Z,3.30
2022-12-24T08:05:37.522Z,2.22
2022-12-24T08:08:04.309Z,3.17
2022-12-24T08:10:31.093Z,3.30
2022-12-24T08:12:57.871Z,3.10
2022-12-24T08:15:24.629Z,3.38
2022-12-24T08:17:51.484Z,3.17
2022-12-24T08:20:18.890Z,2.85
2022-12-24T08:22:45.783Z,2.80
2022-12-24T08:25:12.596Z,2.47
2022-12-24T08:27:39.481Z,2.05
2022-12-24T08:30:06.960Z,2.72
2022-12-24T08:32:34.053Z,3.42
2022-12-24T08:35:00.868Z,3.58
2022-12-24T08:37:27.685Z,2.30
2022-12-24T08:39:54.399Z,2.80
2022-12-24T08:42:21.221Z,2.47
2022-12-24T08:44:48.150Z,2.33
2022-12-24T08:47:14.900Z,2.40
2022-12-24T08:49:41.702Z,2.38
2022-12-24T08:52:08.612Z,2.30
2022-12-24T08:54:35.387Z,2.22
2022-12-24T08:57:02.379Z,1.73
2022-12-24T08:59:29.281Z,2.40
2022-12-24T09:01:56.177Z,2.17
2022-12-24T09:04:23.002Z,3.67
2022-12-24T09:06:49.787Z,2.90
2022-12-24T09:09:17.683Z,4.38
2022-12-24T09:11:45.275Z,2.80
2022-12-24T09:14:12.260Z,2.80
2022-12-24T09:16:39.240Z,3.72
2022-12-24T09:19:06.125Z,4.72
2022-12-24T09:21:32.884Z,3.85
2022-12-24T09:24:01.341Z,2.78
2022-12-24T09:26:29.946Z,4.00
2022-12-24T09:29:06.262Z,7.72
2022-12-24T09:31:42.425Z,2.97
2022-12-24T09:34:09.289Z,2.42
2022-12-24T09:36:36.386Z,2.80
2022-12-24T09:39:03.295Z,2.38
2022-12-24T09:41:51.742Z,3.22
2022-12-24T09:45:07.958Z,1.80
2022-12-24T09:47:52.799Z,2.47
2022-12-24T09:50:44.449Z,2.38
2022-12-24T09:53:21.939Z,2.25
2022-12-24T09:55:59.239Z,2.42
2022-12-24T09:58:33.808Z,2.60
2022-12-24T10:01:00.646Z,2.92
2022-12-24T10:03:28.003Z,2.00
2022-12-24T10:06:11.145Z,2.70
2022-12-24T10:09:02.883Z,2.78
2022-12-24T10:11:38.367Z,2.63
2022-12-24T10:14:29.862Z,2.10
2022-12-24T10:17:20.331Z,2.42
2022-12-24T10:19:52.597Z,2.38
2022-12-24T10:22:43.262Z,2.20
2022-12-24T10:25:27.394Z,2.35
2022-12-24T10:27:56.001Z,3.42
2022-12-24T10:30:23.443Z,2.50
2022-12-24T10:32:54.768Z,2.70
2022-12-24T10:35:36.582Z,2.70
2022-12-24T10:38:04.363Z,2.20
2022-12-24T10:40:48.627Z,2.13
2022-12-24T10:43:22.578Z,2.20
2022-12-24T10:45:58.394Z,2.30
2022-12-24T10:48:50.003Z,2.97
2022-12-24T10:51:51.344Z,2.22
2022-12-24T10:54:26.957Z,2.30
2022-12-24T10:57:01.082Z,2.85
2022-12-24T10:59:34.360Z,2.45
2022-12-24T11:02:02.327Z,2.33
2022-12-24T11:04:32.412Z,2.33
2022-12-24T11:06:59.585Z,3.05
2022-12-24T11:09:32.856Z,2.50
2022-12-24T11:12:08.691Z,3.08
2022-12-24T11:14:39.251Z,3.00
2022-12-24T11:17:08.172Z,2.47
2022-12-24T11:19:40.268Z,1.98
2022-12-24T11:22:28.890Z,2.28
2022-12-24T11:25:24.529Z,2.20
2022-12-24T11:27:52.194Z,2.25
2022-12-24T11:30:22.038Z,1.90
2022-12-24T11:33:09.408Z,1.65
2022-12-24T11:35:43.818Z,2.88
2022-12-24T11:38:13.565Z,1.85
2022-12-24T11:40:43.907Z,2.10
2022-12-24T11:43:22.075Z,2.05
2022-12-24T11:45:57.771Z,2.10
2022-12-24T11:48:29.993Z,2.58
2022-12-24T11:51:06.204Z,3.10
2022-12-24T11:53:45.402Z,2.30
2022-12-24T11:56:31.330Z,4.63
2022-12-24T11:59:07.755Z,4.43
2022-12-24T12:01:37.395Z,3.58
2022-12-24T12:04:18.716Z,2.50
2022-12-24T12:06:55.630Z,2.33
2022-12-24T12:09:25.000Z,2.10
2022-12-24T12:12:14.113Z,2.28
2022-12-24T12:14:52.896Z,2.15
2022-12-24T12:17:33.801Z,2.30
2022-12-24T12:20:11.004Z,2.33
2022-12-24T12:22:56.995Z,2.60
2022-12-24T12:25:38.313Z,2.25
2022-12-24T12:28:14.467Z,2.63
2022-12-24T12:30:43.340Z,2.28
2022-12-24T12:33:25.589Z,2.63
2022-12-24T12:35:54.929Z,2.55
2022-12-24T12:38:25.191Z,2.50
2022-12-24T12:41:07.845Z,4.47
2022-12-24T12:43:59.914Z,3.40
2022-12-24T12:46:32.745Z,4.80
2022-12-24T12:49:08.762Z,3.47
2022-12-24T12:51:50.605Z,2.33
2022-12-24T12:54:36.386Z,3.05
2022-12-24T12:57:08.722Z,1.83
2022-12-24T12:59:43.144Z,2.75
2022-12-24T13:02:31.861Z,2.58
2022-12-24T13:05:36.396Z,2.28
2022-12-24T13:08:03.267Z,3.17
2022-12-24T13:10:53.894Z,2.53
2022-12-24T13:13:50.751Z,3.60
2022-12-24T13:16:54.896Z,2.50
2022-12-24T13:19:52.786Z,3.88
2022-12-24T13:22:22.427Z,2.50
2022-12-24T13:24:52.565Z,2.58
2022-12-24T13:27:37.433Z,2.22
2022-12-24T13:30:38.759Z,2.03
2022-12-24T13:33:08.800Z,2.20
2022-12-24T13:35:38.593Z,2.00
2022-12-24T13:38:27.579Z,3.42
2022-12-24T13:41:39.926Z,5.53
2022-12-24T13:44:07.108Z,3.78
2022-12-24T13:46:50.718Z,3.15
2022-12-24T13:49:41.003Z,4.60
2022-12-24T13:52:10.809Z,3.67
2022-12-24T13:54:58.726Z,4.07
2022-12-24T13:57:34.830Z,5.00
2022-12-24T14:00:04.820Z,6.28
2022-12-24T14:02:47.346Z,4.93
2022-12-24T14:05:24.851Z,4.03
2022-12-24T14:07:52.839Z,3.67
2022-12-24T14:10:26.525Z,3.35
2022-12-24T14:12:54.431Z,2.50
2022-12-24T14:15:48.714Z,3.08
2022-12-24T14:18:21.607Z,2.75
2022-12-24T14:20:54.287Z,3.00
2022-12-24T14:23:44.641Z,2.78
2022-12-24T14:26:17.916Z,3.42
2022-12-24T14:29:05.793Z,2.78
2022-12-24T14:31:32.647Z,3.00
2022-12-24T14:34:13.547Z,2.88
2022-12-24T14:36:44.182Z,3.70
2022-12-24T14:39:22.452Z,9.05
2022-12-24T14:42:10.584Z,3.60
2022-12-24T14:44:59.613Z,2.97
2022-12-24T14:47:38.738Z,3.22
2022-12-24T14:50:20.669Z,2.60
2022-12-24T14:53:21.034Z,2.25
2022-12-24T14:55:50.174Z,2.08
2022-12-24T14:58:32.629Z,2.05
2022-12-24T15:01:02.301Z,1.98
2022-12-24T15:03:32.316Z,2.08
2022-12-24T15:06:05.293Z,2.67
2022-12-24T15:08:48.270Z,2.58
2022-12-24T15:11:19.385Z,2.88
2022-12-24T15:13:50.023Z,2.53
2022-12-24T15:16:37.111Z,2.38
2022-12-24T15:19:20.869Z,3.03
2022-12-24T15:21:47.807Z,3.33
2022-12-24T15:24:29.963Z,4.57
2022-12-24T15:26:56.801Z,2.30
2022-12-24T15:29:29.618Z,2.28
2022-12-24T15:31:58.827Z,2.58
2022-12-24T15:34:35.518Z,5.07
2022-12-24T15:37:05.408Z,3.15
2022-12-24T15:39:32.608Z,2.60
2022-12-24T15:42:14.597Z,4.30
2022-12-24T15:44:54.104Z,3.30
2022-12-24T15:47:28.449Z,3.10
2022-12-24T15:49:55.652Z,4.53
2022-12-24T15:52:25.037Z,2.88
2022-12-24T15:54:57.669Z,5.35
2022-12-24T15:57:33.139Z,2.92
2022-12-24T16:00:02.822Z,3.20
2022-12-24T16:02:36.352Z,3.88
2022-12-24T16:05:30.169Z,3.10
2022-12-24T16:08:15.345Z,4.07
2022-12-24T16:10:46.612Z,3.63
2022-12-24T16:13:23.753Z,4.57
2022-12-24T16:15:55.831Z,3.60
2022-12-24T16:18:36.865Z,3.65
2022-12-24T16:21:05.315Z,3.88
2022-12-24T16:23:36.652Z,3.63
2022-12-24T16:26:03.983Z,3.75
2022-12-24T16:28:32.295Z,6.53
2022-12-24T16:30:59.854Z,3.95
2022-12-24T16:33:27.037Z,4.22
2022-12-24T16:35:54.343Z,4.00
2022-12-24T16:38:21.579Z,4.18
2022-12-24T16:40:48.824Z,4.55
2022-12-24T16:43:34.702Z,4.15
2022-12-24T16:46:05.224Z,3.95
2022-12-24T16:48:36.218Z,4.10
2022-12-24T16:51:03.071Z,4.55
2022-12-24T16:53:29.877Z,4.93
2022-12-24T16:55:56.664Z,4.22
2022-12-24T16:58:23.518Z,4.13
2022-12-24T17:00:50.328Z,4.85
2022-12-24T17:03:17.280Z,5.45
2022-12-24T17:05:44.564Z,5.35
2022-12-24T17:08:12.343Z,7.88
2022-12-24T17:10:39.708Z,7.20
2022-12-24T17:13:07.089Z,7.78
2022-12-24T17:15:33.976Z,7.00
2022-12-24T17:18:00.788Z,4.97
2022-12-24T17:20:27.526Z,6.45
2022-12-24T17:22:54.539Z,5.32
2022-12-24T17:25:21.474Z,5.70
2022-12-24T17:27:48.508Z,5.88
2022-12-24T17:30:16.369Z,6.18
2022-12-24T17:32:43.393Z,4.65
2022-12-24T17:35:10.686Z,4.60
2022-12-24T17:37:37.557Z,4.50
2022-12-24T17:40:04.840Z,4.45
2022-12-24T17:42:31.894Z,4.07
2022-12-24T17:44:58.609Z,4.57
2022-12-24T17:47:25.549Z,5.88
2022-12-24T17:49:52.350Z,5.40
2022-12-24T17:52:19.089Z,7.45
2022-12-24T17:54:45.878Z,5.90
2022-12-24T17:57:12.884Z,5.85
2022-12-24T17:59:39.664Z,6.43
2022-12-24T18:02:06.957Z,7.03
2022-12-24T18:04:33.876Z,6.40
2022-12-24T18:07:03.268Z,7.55
2022-12-24T18:09:30.699Z,5.82
2022-12-24T18:11:57.487Z,6.55
2022-12-24T18:14:24.255Z,9.18
2022-12-24T18:16:51.289Z,6.30
2022-12-24T18:19:18.568Z,6.63
2022-12-24T18:21:45.392Z,6.97
2022-12-24T18:24:13.206Z,9.80
2022-12-24T18:26:40.409Z,6.75
2022-12-24T18:29:08.797Z,12.57
2022-12-24T18:31:36.368Z,11.15
2022-12-24T18:34:05.908Z,8.10
2022-12-24T18:36:33.715Z,7.38
2022-12-24T18:39:00.961Z,6.43
2022-12-24T18:41:30.234Z,7.28
2022-12-24T18:43:57.881Z,7.82
2022-12-24T18:46:27.050Z,6.25
2022-12-24T18:48:55.954Z,4.72
2022-12-24T18:51:23.953Z,5.50
2022-12-24T18:53:50.964Z,5.90
2022-12-24T18:56:20.685Z,5.50
2022-12-24T18:58:47.868Z,7.80
2022-12-24T19:01:20.837Z,5.38
2022-12-24T19:03:49.306Z,5.68
2022-12-24T19:06:17.677Z,7.57
2022-12-24T19:09:01.119Z,9.13
2022-12-24T19:11:30.945Z,11.55
2022-12-24T19:13:58.516Z,7.35
2022-12-24T19:16:26.261Z,6.03
2022-12-24T19:18:53.349Z,6.45
2022-12-24T19:21:20.180Z,6.93
2022-12-24T19:23:47.412Z,6.05
2022-12-24T19:26:16.064Z,7.55
2022-12-24T19:28:43.815Z,7.00
2022-12-24T19:31:19.439Z,6.75
2022-12-24T19:33:49.602Z,9.10
2022-12-24T19:36:22.217Z,7.10
2022-12-24T19:38:50.282Z,6.50
2022-12-24T19:41:20.302Z,6.90
2022-12-24T19:43:50.320Z,4.78
2022-12-24T19:46:20.590Z,4.95
2022-12-24T19:48:53.016Z,4.25
2022-12-24T19:51:20.828Z,4.25
2022-12-24T19:53:48.138Z,6.22
2022-12-24T19:56:19.407Z,6.05
2022-12-24T19:58:46.714Z,4.90
2022-12-24T20:01:16.660Z,4.45
2022-12-24T20:03:44.708Z,5.40
2022-12-24T20:06:12.692Z,7.53
2022-12-24T20:08:40.359Z,6.22
2022-12-24T20:11:13.133Z,6.80
2022-12-24T20:13:41.238Z,7.57
2022-12-24T20:16:15.559Z,6.85
2022-12-24T20:18:42.394Z,6.22
2022-12-24T20:21:11.341Z,6.18
2022-12-24T20:23:40.089Z,5.63
2022-12-24T20:26:08.543Z,5.43
2022-12-24T20:28:36.497Z,5.90
2022-12-24T20:31:14.128Z,5.97
2022-12-24T20:33:41.951Z,6.25
2022-12-24T20:36:09.512Z,7.18
2022-12-24T20:38:37.857Z,8.38
2022-12-24T20:41:09.765Z,8.00
2022-12-24T20:43:45.127Z,8.82
2022-12-24T20:46:15.091Z,7.47
2022-12-24T20:48:42.267Z,7.90
2022-12-24T20:51:22.693Z,7.72
2022-12-24T20:53:51.458Z,7.53
2022-12-24T20:56:18.838Z,7.75
2022-12-24T20:58:45.986Z,7.53
2022-12-24T21:01:17.989Z,7.47
2022-12-24T21:03:44.971Z,7.07
2022-12-24T21:06:12.661Z,7.70
2022-12-24T21:08:39.745Z,7.57
2022-12-24T21:11:25.038Z,7.50
2022-12-24T21:13:51.867Z,7.93
2022-12-24T21:16:18.752Z,7.65
2022-12-24T21:18:45.553Z,8.38
2022-12-24T21:21:12.561Z,9.18
2022-12-24T21:23:39.297Z,8.15
2022-12-24T21:26:06.320Z,7.35
2022-12-24T21:28:33.591Z,7.90
2022-12-24T21:31:00.920Z,7.63
2022-12-24T21:33:32.062Z,7.38
2022-12-24T21:36:03.899Z,7.22
2022-12-24T21:38:30.769Z,7.10
2022-12-24T21:41:03.223Z,8.00
2022-12-24T21:43:34.393Z,7.35
2022-12-24T21:46:05.450Z,7.22
2022-12-24T21:48:51.024Z,7.57
2022-12-24T21:51:17.764Z,7.15
2022-12-24T21:54:03.321Z,8.27
2022-12-24T21:56:30.132Z,8.35
2022-12-24T21:58:56.879Z,8.27
2022-12-24T22:01:23.735Z,9.48
2022-12-24T22:03:50.796Z,9.05
2022-12-24T22:06:36.362Z,8.82
2022-12-24T22:09:21.978Z,8.88
2022-12-24T22:11:53.839Z,8.77
2022-12-24T22:14:21.665Z,7.78
2022-12-24T22:16:48.579Z,8.40
2022-12-24T22:19:15.414Z,7.40
2022-12-24T22:21:42.176Z,7.53
2022-12-24T22:24:09.815Z,7.25
2022-12-24T22:26:38.895Z,7.32
2022-12-24T22:29:06.229Z,6.97
2022-12-24T22:31:33.785Z,6.45
2022-12-24T22:34:01.043Z,7.30
2022-12-24T22:36:27.835Z,7.38
2022-12-24T22:38:54.613Z,6.85
2022-12-24T22:41:21.563Z,7.38
2022-12-24T22:43:49.902Z,6.78
2022-12-24T22:46:17.647Z,7.65
2022-12-24T22:48:45.548Z,7.72
2022-12-24T22:51:17.649Z,7.20
2022-12-24T22:53:44.699Z,7.43
2022-12-24T22:56:18.989Z,7.65
2022-12-24T22:58:48.920Z,7.13
2022-12-24T23:01:15.834Z,8.40
2022-12-24T23:03:42.744Z,7.07
2022-12-24T23:06:10.002Z,7.30
2022-12-24T23:08:38.053Z,7.40
2022-12-24T23:11:12.080Z,6.28
2022-12-24T23:14:00.703Z,6.30
2022-12-24T23:16:29.592Z,6.97
2022-12-24T23:18:57.495Z,6.78
2022-12-24T23:21:24.637Z,7.63
2022-12-24T23:23:52.275Z,7.07
2022-12-24T23:26:24.090Z,7.40
2022-12-24T23:28:53.066Z,7.18
2022-12-24T23:31:21.933Z,6.80
2022-12-24T23:33:49.016Z,7.65
2022-12-24T23:36:16.083Z,6.55
2022-12-24T23:38:43.005Z,6.32
2022-12-24T23:41:11.518Z,6.38
2022-12-24T23:43:38.856Z,6.07
2022-12-24T23:46:05.835Z,5.85
2022-12-24T23:48:32.860Z,6.45
2022-12-24T23:51:06.090Z,6.20
2022-12-24T23:53:33.610Z,6.53
2022-12-24T23:56:01.153Z,6.00
2022-12-24T23:58:28.511Z,6.13
